Terminal Aerodrome Forecast
Issued by NWS Sterling, VA

Current Version | Previous Version | Graphics & Text | Print | Product List | Glossary On
Versions: 1 2 3 4 5 6 7 8 9 10 11 12 13 14 15 16 17 18 19 20 21 22
000
FTUS41 KLWX 200536
TAFIAD
TAF
KIAD 200536Z 2006/2112 33006KT P6SM FEW040 SCT250
     FM202000 26005KT P6SM BKN090
     FM202300 16004KT P6SM BKN080
     FM210400 14004KT 6SM -SHRA BR OVC050
     FM210600 00000KT 5SM -SHRA BR OVC025
     FM210900 00000KT 4SM BR OVC015=

USA.gov is the U.S. government's official web portal to all federal, state and local government web resources and services.